createdAt,value
2018-07-10T00:00:31.807Z,101688.89
2018-07-10T00:03:45.447Z,101687.15
2018-07-10T00:07:13.278Z,101695.98
2018-07-10T00:09:58.218Z,101701.26
2018-07-10T00:12:26.722Z,101698.59
2018-07-10T00:14:55.330Z,101704.33
2018-07-10T00:17:23.845Z,101701.67
2018-07-10T00:19:52.746Z,101696.77
2018-07-10T00:22:21.321Z,101701.63
2018-07-10T00:24:50.157Z,101700.75
2018-07-10T00:27:18.607Z,101702.08
2018-07-10T00:29:47.342Z,101698.03
2018-07-10T00:32:15.859Z,101699.33
2018-07-10T00:34:44.625Z,101704.19
2018-07-10T00:37:13.421Z,101704.64
2018-07-10T00:39:42.157Z,101704.64
2018-07-10T00:42:10.925Z,101704.66
2018-07-10T00:44:39.717Z,101709.97
2018-07-10T00:47:08.521Z,101709.94
2018-07-10T00:49:37.273Z,101712.13
2018-07-10T00:52:05.789Z,101716.48
2018-07-10T00:54:34.513Z,101725.70
2018-07-10T00:57:03.345Z,101722.97
2018-07-10T00:59:31.869Z,101716.30
2018-07-10T01:02:00.820Z,101723.38
2018-07-10T01:04:29.830Z,101721.99
2018-07-10T01:06:58.301Z,101722.44
2018-07-10T01:09:27.021Z,101731.78
2018-07-10T01:11:56.013Z,101728.73
2018-07-10T01:14:24.526Z,101731.41
2018-07-10T01:16:53.313Z,101726.98
2018-07-10T01:19:22.117Z,101723.42
2018-07-10T01:21:50.635Z,101720.28
2018-07-10T01:24:19.552Z,101722.53
2018-07-10T01:26:50.008Z,101726.48
2018-07-10T01:29:24.505Z,101721.20
2018-07-10T01:31:53.911Z,101723.41
2018-07-10T01:34:22.922Z,101724.27
2018-07-10T01:36:52.403Z,101724.66
2018-07-10T01:39:21.247Z,101729.45
2018-07-10T01:41:49.994Z,101725.92
2018-07-10T01:44:18.558Z,101730.33
2018-07-10T01:46:47.485Z,101728.52
2018-07-10T01:49:16.030Z,101736.93
2018-07-10T01:51:45.078Z,101736.39
2018-07-10T01:54:14.462Z,101736.78
2018-07-10T01:56:43.145Z,101741.09
2018-07-10T01:59:11.744Z,101743.65
2018-07-10T02:01:40.890Z,101740.52
2018-07-10T02:04:09.814Z,101739.61
2018-07-10T02:06:38.537Z,101736.89
2018-07-10T02:09:07.896Z,101728.86
2018-07-10T02:11:37.120Z,101730.56
2018-07-10T02:14:05.695Z,101730.02
2018-07-10T02:16:34.169Z,101728.64
2018-07-10T02:19:03.685Z,101729.93
2018-07-10T02:21:32.247Z,101727.22
2018-07-10T02:24:01.446Z,101727.98
2018-07-10T02:26:30.341Z,101737.63
2018-07-10T02:28:58.941Z,101737.19
2018-07-10T02:31:27.438Z,101739.87
2018-07-10T02:33:56.392Z,101742.06
2018-07-10T02:36:25.309Z,101748.25
2018-07-10T02:38:56.544Z,101747.38
2018-07-10T02:41:25.135Z,101750.97
2018-07-10T02:44:05.329Z,101741.36
2018-07-10T02:46:34.965Z,101752.47
2018-07-10T02:49:19.120Z,101748.95
2018-07-10T02:51:54.274Z,101752.03
2018-07-10T02:54:25.056Z,101725.76
2018-07-10T02:56:54.885Z,101755.13
2018-07-10T02:59:23.846Z,101758.13
2018-07-10T03:01:52.552Z,101755.36
2018-07-10T03:04:21.933Z,101757.92
2018-07-10T03:06:50.897Z,101757.03
2018-07-10T03:09:19.881Z,101754.38
2018-07-10T03:11:48.832Z,101757.49
2018-07-10T03:14:17.751Z,101758.81
2018-07-10T03:16:46.973Z,101761.88
2018-07-10T03:19:15.523Z,101766.31
2018-07-10T03:21:44.401Z,101764.53
2018-07-10T03:24:13.209Z,101772.51
2018-07-10T03:26:41.781Z,101772.05
2018-07-10T03:29:10.437Z,101765.83
2018-07-10T03:31:39.697Z,101772.41
2018-07-10T03:34:08.253Z,101769.30
2018-07-10T03:36:36.794Z,101775.04
2018-07-10T03:39:05.961Z,101772.37
2018-07-10T03:41:35.437Z,101772.37
2018-07-10T03:44:03.957Z,101769.72
2018-07-10T03:46:32.905Z,101777.19
2018-07-10T03:49:01.938Z,101784.68
2018-07-10T03:51:30.483Z,101778.01
2018-07-10T03:53:59.582Z,101774.88
2018-07-10T03:56:28.905Z,101778.87
2018-07-10T03:58:59.019Z,101778.90
2018-07-10T04:01:34.193Z,101778.48
2018-07-10T04:04:03.338Z,101773.19
2018-07-10T04:06:32.119Z,101774.52
2018-07-10T04:09:01.867Z,101772.27
2018-07-10T04:11:30.387Z,101775.81
2018-07-10T04:13:59.473Z,101775.86
2018-07-10T04:16:28.972Z,101781.21
2018-07-10T04:18:58.113Z,101783.05
2018-07-10T04:21:28.430Z,101781.35
2018-07-10T04:24:10.564Z,101787.61
2018-07-10T04:26:44.975Z,101787.70
2018-07-10T04:29:19.303Z,101789.52
2018-07-10T04:31:56.158Z,101780.66
2018-07-10T04:34:25.497Z,101787.32
2018-07-10T04:37:14.614Z,101780.28
2018-07-10T04:39:44.640Z,101775.89
2018-07-10T04:42:36.047Z,101785.17
2018-07-10T04:45:09.425Z,101790.97
2018-07-10T04:47:57.157Z,101779.97
2018-07-10T04:50:39.194Z,101791.14
2018-07-10T04:53:15.405Z,101790.31
2018-07-10T04:55:44.566Z,101793.44
2018-07-10T04:58:19.345Z,101817.34
2018-07-10T05:00:56.885Z,101796.57
2018-07-10T05:03:26.931Z,101724.84
2018-07-10T05:05:55.538Z,101799.31
2018-07-10T05:08:25.114Z,101802.42
2018-07-10T05:10:54.937Z,101799.80
2018-07-10T05:13:24.890Z,101800.73
2018-07-10T05:16:03.981Z,101802.54
2018-07-10T05:18:33.429Z,101800.38
2018-07-10T05:21:08.755Z,101804.40
2018-07-10T05:23:37.361Z,101799.13
2018-07-10T05:26:05.914Z,101802.68
2018-07-10T05:28:34.873Z,101802.30
2018-07-10T05:31:04.426Z,101799.28
2018-07-10T05:33:33.621Z,101797.58
2018-07-10T05:36:02.458Z,101794.08
2018-07-10T05:38:38.147Z,101795.47
2018-07-10T05:41:07.461Z,101799.05
2018-07-10T05:43:40.887Z,101795.15
2018-07-10T05:46:09.449Z,101803.66
2018-07-10T05:48:37.985Z,101781.03
2018-07-10T05:51:07.229Z,101807.41
2018-07-10T05:53:35.953Z,101801.75
2018-07-10T05:56:04.486Z,101805.38
2018-07-10T05:58:33.728Z,101807.20
2018-07-10T06:01:02.246Z,101812.56
2018-07-10T06:03:30.762Z,101809.97
2018-07-10T06:05:59.805Z,101810.92
2018-07-10T06:08:28.466Z,101817.21
2018-07-10T06:10:57.925Z,101816.84
2018-07-10T06:13:26.785Z,101819.12
2018-07-10T06:15:55.342Z,101818.77
2018-07-10T06:18:24.226Z,101821.47
2018-07-10T06:20:52.911Z,101824.16
2018-07-10T06:23:21.565Z,101821.09
2018-07-10T06:25:50.558Z,101815.78
2018-07-10T06:28:28.488Z,101831.79
2018-07-10T06:31:01.717Z,101827.83
2018-07-10T06:33:30.351Z,101826.97
2018-07-10T06:36:34.646Z,101831.45
2018-07-10T06:39:11.297Z,101825.73
2018-07-10T06:41:48.201Z,101835.98
2018-07-10T06:44:18.981Z,101832.89
2018-07-10T06:46:51.249Z,101837.36
2018-07-10T06:49:28.077Z,101829.40
2018-07-10T06:52:15.471Z,101834.36
2018-07-10T06:55:16.049Z,101830.84
2018-07-10T06:57:59.693Z,101823.77
2018-07-10T07:00:28.797Z,101830.42
2018-07-10T07:02:58.013Z,101838.89
2018-07-10T07:05:26.597Z,101830.01
2018-07-10T07:07:55.688Z,101841.13
2018-07-10T07:10:25.476Z,101838.05
2018-07-10T07:12:54.041Z,101843.83
2018-07-10T07:15:22.820Z,101835.81
2018-07-10T07:17:52.818Z,101844.23
2018-07-10T07:20:22.974Z,101842.42
2018-07-10T07:22:52.010Z,101840.17
2018-07-10T07:25:20.717Z,101842.77
2018-07-10T07:27:49.417Z,101849.80
2018-07-10T07:30:18.022Z,101840.36
2018-07-10T07:32:46.558Z,101845.20
2018-07-10T07:35:15.569Z,101843.31
2018-07-10T07:37:44.577Z,101849.82
2018-07-10T07:40:13.429Z,101849.96
2018-07-10T07:42:42.701Z,101850.48
2018-07-10T07:45:11.873Z,101846.16
2018-07-10T07:47:40.441Z,101845.89
2018-07-10T07:50:09.677Z,101836.44
2018-07-10T07:52:38.545Z,101835.74
2018-07-10T07:55:07.005Z,101838.93
2018-07-10T07:57:35.578Z,101837.95
2018-07-10T08:00:04.198Z,101833.80
2018-07-10T08:02:32.707Z,101842.00
2018-07-10T08:05:01.276Z,101840.14
2018-07-10T08:07:30.193Z,101830.83
2018-07-10T08:09:59.210Z,101836.22
2018-07-10T08:12:31.102Z,101838.24
2018-07-10T08:15:03.554Z,101835.56
2018-07-10T08:17:35.460Z,101836.55
2018-07-10T08:20:05.319Z,101833.86
2018-07-10T08:22:34.458Z,101823.89
2018-07-10T08:25:03.679Z,101825.34
2018-07-10T08:27:32.890Z,101825.60
2018-07-10T08:30:01.614Z,101828.41
2018-07-10T08:32:30.845Z,101833.41
2018-07-10T08:34:59.392Z,101826.48
2018-07-10T08:37:28.045Z,101829.17
2018-07-10T08:39:56.789Z,101825.34
2018-07-10T08:42:25.309Z,101823.83
2018-07-10T08:44:54.773Z,101827.44
2018-07-10T08:47:23.693Z,101822.06
2018-07-10T08:49:52.363Z,101830.05
2018-07-10T08:52:21.002Z,101827.25
2018-07-10T08:54:49.707Z,101827.67
2018-07-10T08:57:18.333Z,101821.69
2018-07-10T08:59:47.408Z,101825.41
2018-07-10T09:02:16.118Z,101823.40
2018-07-10T09:04:45.466Z,101825.38
2018-07-10T09:07:14.032Z,101827.91
2018-07-10T09:09:42.582Z,101827.53
2018-07-10T09:12:11.412Z,101826.18
2018-07-10T09:14:40.119Z,101825.89
2018-07-10T09:17:08.951Z,101828.86
2018-07-10T09:19:39.216Z,101825.67
2018-07-10T09:22:10.871Z,101823.08
2018-07-10T09:24:57.086Z,101823.31
2018-07-10T09:27:25.630Z,101819.31
2018-07-10T09:29:54.561Z,101822.46
2018-07-10T09:32:28.367Z,101824.53
2018-07-10T09:34:58.670Z,101827.36
2018-07-10T09:37:35.390Z,101825.14
2018-07-10T09:40:09.789Z,101829.17
2018-07-10T09:43:12.128Z,101826.60
2018-07-10T09:45:40.944Z,101822.91
2018-07-10T09:48:10.859Z,101826.42
2018-07-10T09:50:40.209Z,101820.47
2018-07-10T09:53:09.039Z,101822.42
2018-07-10T09:55:37.520Z,101826.10
2018-07-10T09:58:06.861Z,101832.53
2018-07-10T10:00:41.185Z,101825.94
2018-07-10T10:03:10.065Z,101826.83
2018-07-10T10:05:43.727Z,101818.33
2018-07-10T10:08:12.753Z,101820.09
2018-07-10T10:10:42.006Z,101821.45
2018-07-10T10:13:10.790Z,101817.05
2018-07-10T10:15:40.357Z,101818.21
2018-07-10T10:18:10.219Z,101821.14
2018-07-10T10:20:40.614Z,101828.55
2018-07-10T10:23:11.245Z,101830.61
2018-07-10T10:25:43.871Z,101828.20
2018-07-10T10:28:13.172Z,101829.35
2018-07-10T10:30:41.722Z,101824.17
2018-07-10T10:33:11.586Z,101830.28
2018-07-10T10:35:41.389Z,101829.75
2018-07-10T10:38:10.571Z,101832.78
2018-07-10T10:40:40.414Z,101832.03
2018-07-10T10:43:11.423Z,101834.41
2018-07-10T10:45:42.817Z,101835.32
2018-07-10T10:48:13.558Z,101831.68
2018-07-10T10:50:44.217Z,101841.64
2018-07-10T10:53:13.114Z,101835.78
2018-07-10T10:55:41.811Z,101841.09
2018-07-10T10:58:10.554Z,101839.53
2018-07-10T11:00:41.282Z,101831.52
2018-07-10T11:03:10.750Z,101832.28
2018-07-10T11:05:40.526Z,101837.05
2018-07-10T11:08:09.956Z,101831.47
2018-07-10T11:10:39.373Z,101837.88
2018-07-10T11:13:08.124Z,101837.13
2018-07-10T11:15:42.417Z,101839.09
2018-07-10T11:18:13.281Z,101837.39
2018-07-10T11:20:51.921Z,101833.77
2018-07-10T11:23:32.173Z,101810.56
2018-07-10T11:26:08.509Z,101837.98
2018-07-10T11:28:37.123Z,101836.72
2018-07-10T11:31:05.822Z,101832.59
2018-07-10T11:33:34.789Z,101841.71
2018-07-10T11:36:03.953Z,101839.07
2018-07-10T11:38:32.761Z,101836.11
2018-07-10T11:41:01.395Z,101834.48
2018-07-10T11:43:30.263Z,101835.17
2018-07-10T11:45:58.769Z,101824.88
2018-07-10T11:48:28.242Z,101834.50
2018-07-10T11:50:57.527Z,101840.09
2018-07-10T11:53:26.222Z,101840.42
2018-07-10T11:55:54.770Z,101833.78
2018-07-10T11:58:23.595Z,101833.95
2018-07-10T12:00:52.113Z,101836.52
2018-07-10T12:03:21.183Z,101840.22
2018-07-10T12:05:49.773Z,101834.59
2018-07-10T12:08:18.850Z,101840.70
2018-07-10T12:11:20.866Z,101837.45
2018-07-10T12:13:49.385Z,101842.37
2018-07-10T12:16:18.033Z,101846.23
2018-07-10T12:18:47.796Z,101843.58
2018-07-10T12:21:18.065Z,101843.71
2018-07-10T12:23:46.896Z,101850.21
2018-07-10T12:26:15.982Z,101845.75
2018-07-10T12:28:44.560Z,101846.13
2018-07-10T12:31:13.553Z,101839.77
2018-07-10T12:33:48.813Z,101836.55
2018-07-10T12:36:17.693Z,101842.81
2018-07-10T12:38:46.221Z,101845.73
2018-07-10T12:41:15.521Z,101841.95
2018-07-10T12:43:44.365Z,101843.23
2018-07-10T12:46:13.163Z,101836.92
2018-07-10T12:48:41.975Z,101847.02
2018-07-10T12:51:11.020Z,101843.31
2018-07-10T12:53:40.018Z,101833.45
2018-07-10T12:56:09.188Z,101833.34
2018-07-10T12:58:41.151Z,101835.46
2018-07-10T13:01:09.857Z,101831.75
2018-07-10T13:03:39.206Z,101832.21
2018-07-10T13:06:08.035Z,101834.36
2018-07-10T13:08:36.754Z,101828.60
2018-07-10T13:11:06.852Z,101828.41
2018-07-10T13:13:35.370Z,101823.59
2018-07-10T13:16:04.273Z,101830.21
2018-07-10T13:18:34.225Z,101829.07
2018-07-10T13:21:02.738Z,101828.55
2018-07-10T13:23:31.341Z,101825.09
2018-07-10T13:26:00.090Z,101833.34
2018-07-10T13:28:29.149Z,101832.06
2018-07-10T13:30:58.150Z,101824.02
2018-07-10T13:33:27.173Z,101821.39
2018-07-10T13:35:55.709Z,101828.32
2018-07-10T13:38:25.691Z,101821.40
2018-07-10T13:40:58.127Z,101822.95
2018-07-10T13:43:26.959Z,101821.69
2018-07-10T13:45:55.835Z,101818.67
2018-07-10T13:48:24.713Z,101821.03
2018-07-10T13:50:53.662Z,101828.32
2018-07-10T13:53:22.181Z,101826.45
2018-07-10T13:55:51.490Z,101823.98
2018-07-10T13:58:23.856Z,101811.65
2018-07-10T14:01:01.053Z,101819.55
2018-07-10T14:03:29.701Z,101812.94
2018-07-10T14:05:58.273Z,101807.75
2018-07-10T14:08:27.050Z,101816.83
2018-07-10T14:10:55.717Z,101811.78
2018-07-10T14:13:24.571Z,101805.20
2018-07-10T14:15:53.433Z,101818.09
2018-07-10T14:18:23.561Z,101816.20
2018-07-10T14:20:54.353Z,101810.59
2018-07-10T14:23:23.605Z,101808.62
2018-07-10T14:25:52.682Z,101807.19
2018-07-10T14:28:21.703Z,101809.50
2018-07-10T14:30:50.821Z,101797.66
2018-07-10T14:33:20.038Z,101799.52
2018-07-10T14:35:48.605Z,101796.94
2018-07-10T14:38:27.018Z,101792.73
2018-07-10T14:40:56.914Z,101790.24
2018-07-10T14:43:29.484Z,101790.05
2018-07-10T14:46:06.958Z,101792.83
2018-07-10T14:48:38.739Z,101795.69
2018-07-10T14:51:07.644Z,101800.22
2018-07-10T14:53:37.030Z,101797.27
2018-07-10T14:56:05.601Z,101784.55
2018-07-10T14:58:34.121Z,101787.55
2018-07-10T15:01:03.036Z,101773.77
2018-07-10T15:03:31.889Z,101786.11
2018-07-10T15:06:00.369Z,101796.14
2018-07-10T15:08:29.349Z,101789.41
2018-07-10T15:10:58.258Z,101793.42
2018-07-10T15:13:26.750Z,101786.84
2018-07-10T15:16:04.161Z,101791.65
2018-07-10T15:18:38.090Z,101790.98
2018-07-10T15:21:07.023Z,101780.30
2018-07-10T15:23:35.760Z,101778.17
2018-07-10T15:26:04.317Z,101783.73
2018-07-10T15:28:33.184Z,101786.69
2018-07-10T15:31:02.518Z,101788.03
2018-07-10T15:33:31.575Z,101783.38
2018-07-10T15:36:00.301Z,101783.94
2018-07-10T15:38:29.253Z,101781.27
2018-07-10T15:40:57.797Z,101778.42
2018-07-10T15:43:26.735Z,101772.27
2018-07-10T15:45:56.075Z,101771.75
2018-07-10T15:48:24.765Z,101777.92
2018-07-10T15:50:53.296Z,101779.23
2018-07-10T15:53:22.437Z,101753.46
2018-07-10T15:55:51.021Z,101774.82
2018-07-10T15:58:19.658Z,101770.12
2018-07-10T16:00:48.518Z,101772.92
2018-07-10T16:03:17.233Z,101768.04
2018-07-10T16:05:46.061Z,101770.50
2018-07-10T16:08:21.349Z,101777.73
2018-07-10T16:10:52.686Z,101774.66
2018-07-10T16:13:22.641Z,101779.05
2018-07-10T16:15:54.881Z,101780.57
2018-07-10T16:18:25.450Z,101773.48
2018-07-10T16:20:58.704Z,101766.59
2018-07-10T16:23:28.238Z,101765.57
2018-07-10T16:26:31.287Z,101761.22
2018-07-10T16:28:59.973Z,101771.36
2018-07-10T16:31:28.559Z,101768.38
2018-07-10T16:33:57.713Z,101768.58
2018-07-10T16:36:26.417Z,101769.99
2018-07-10T16:38:54.969Z,101769.99
2018-07-10T16:41:28.789Z,101767.06
2018-07-10T16:44:00.220Z,101781.12
2018-07-10T16:46:28.791Z,101782.10
2018-07-10T16:49:36.207Z,101779.66
2018-07-10T16:52:12.773Z,101786.58
2018-07-10T16:54:41.473Z,101786.25
2018-07-10T16:57:10.085Z,101786.72
2018-07-10T16:59:39.785Z,101783.95
2018-07-10T17:02:08.370Z,101792.35
2018-07-10T17:04:36.994Z,101792.63
2018-07-10T17:07:05.650Z,101787.69
2018-07-10T17:09:34.395Z,101784.24
2018-07-10T17:12:02.906Z,101788.47
2018-07-10T17:14:31.433Z,101797.62
2018-07-10T17:17:00.131Z,101799.32
2018-07-10T17:19:28.665Z,101793.64
2018-07-10T17:21:57.302Z,101776.55
2018-07-10T17:24:26.453Z,101793.11
2018-07-10T17:26:55.367Z,101796.98
2018-07-10T17:29:23.973Z,101797.96
2018-07-10T17:31:52.535Z,101797.28
2018-07-10T17:34:21.485Z,101797.50
2018-07-10T17:36:50.014Z,101793.00
2018-07-10T17:39:18.566Z,101796.84
2018-07-10T17:41:47.779Z,101805.40
2018-07-10T17:44:16.350Z,101809.30
2018-07-10T17:46:45.042Z,101809.05
2018-07-10T17:49:13.979Z,101807.30
2018-07-10T17:51:42.544Z,101805.30
2018-07-10T17:54:11.709Z,101801.83
2018-07-10T17:56:40.504Z,101809.20
2018-07-10T17:59:09.422Z,101801.51
2018-07-10T18:01:38.694Z,101801.85
2018-07-10T18:04:08.003Z,101804.02
2018-07-10T18:06:36.977Z,101797.95
2018-07-10T18:09:06.433Z,101806.96
2018-07-10T18:11:35.410Z,101803.88
2018-07-10T18:14:03.945Z,101803.52
2018-07-10T18:16:35.366Z,101802.84
2018-07-10T18:19:05.229Z,101803.36
2018-07-10T18:21:35.217Z,101802.05
2018-07-10T18:24:04.099Z,101798.99
2018-07-10T18:26:32.625Z,101799.55
2018-07-10T18:29:01.934Z,101808.23
2018-07-10T18:31:30.638Z,101807.91
2018-07-10T18:33:59.202Z,101812.08
2018-07-10T18:36:27.832Z,101810.42
2018-07-10T18:38:56.450Z,101809.59
2018-07-10T18:41:24.982Z,101811.84
2018-07-10T18:43:53.512Z,101811.90
2018-07-10T18:46:22.177Z,101808.81
2018-07-10T18:48:50.800Z,101560.89
2018-07-10T18:51:20.770Z,101811.73
2018-07-10T18:53:50.003Z,101790.10
2018-07-10T18:56:18.605Z,101815.48
2018-07-10T18:58:59.892Z,101811.53
2018-07-10T19:02:35.628Z,101816.48
2018-07-10T19:05:06.117Z,101817.63
2018-07-10T19:07:37.485Z,101819.52
2018-07-10T19:10:06.470Z,101818.67
2018-07-10T19:12:35.077Z,101817.42
2018-07-10T19:15:03.677Z,101826.08
2018-07-10T19:17:33.280Z,101831.13
2018-07-10T19:20:03.767Z,101832.55
2018-07-10T19:22:44.966Z,101831.75
2018-07-10T19:25:13.870Z,101830.02
2018-07-10T19:27:44.225Z,101833.19
2018-07-10T19:30:12.768Z,101831.52
2018-07-10T19:32:41.387Z,101833.87
2018-07-10T19:35:11.023Z,101828.20
2018-07-10T19:37:40.154Z,101833.27
2018-07-10T19:40:09.105Z,101841.38
2018-07-10T19:42:40.369Z,101836.52
2018-07-10T19:45:09.676Z,101835.67
2018-07-10T19:47:39.505Z,101835.81
2018-07-10T19:50:13.658Z,101834.59
2018-07-10T19:52:45.967Z,101831.53
2018-07-10T19:55:14.820Z,101835.98
2018-07-10T19:58:14.164Z,101840.00
2018-07-10T20:00:46.582Z,101836.50
2018-07-10T20:03:27.184Z,101836.58
2018-07-10T20:05:58.572Z,101845.99
2018-07-10T20:08:27.247Z,101839.78
2018-07-10T20:10:59.601Z,101842.48
2018-07-10T20:13:48.255Z,101842.50
2018-07-10T20:17:23.106Z,101853.64
2018-07-10T20:19:58.803Z,101851.41
2018-07-10T20:24:41.567Z,101853.70
2018-07-10T20:27:16.489Z,101857.36
2018-07-10T20:31:58.347Z,101862.30
2018-07-10T20:34:32.257Z,101858.39
2018-07-10T20:37:00.897Z,101861.10
2018-07-10T20:39:36.477Z,101859.31
2018-07-10T20:42:05.461Z,101864.23
2018-07-10T20:45:06.690Z,101860.70
2018-07-10T20:47:47.990Z,101866.94
2018-07-10T20:50:21.348Z,101866.49
2018-07-10T20:52:53.544Z,101868.28
2018-07-10T20:55:24.537Z,101871.84
2018-07-10T20:57:58.441Z,101880.73
2018-07-10T21:00:27.157Z,101873.62
2018-07-10T21:04:01.733Z,101879.84
2018-07-10T21:06:38.053Z,101877.18
2018-07-10T21:09:13.769Z,101872.28
2018-07-10T21:12:06.628Z,101885.13
2018-07-10T21:14:40.496Z,101886.45
2018-07-10T21:17:12.830Z,101880.23
2018-07-10T21:20:01.750Z,101886.02
2018-07-10T21:24:45.349Z,101884.68
2018-07-10T21:27:20.310Z,101888.24
2018-07-10T21:29:54.109Z,101891.35
2018-07-10T21:32:30.209Z,101886.02
2018-07-10T21:35:02.442Z,101885.13
2018-07-10T21:37:42.190Z,101891.80
2018-07-10T21:40:33.071Z,101885.12
2018-07-10T21:43:15.353Z,101886.89
2018-07-10T21:46:54.809Z,101883.77
2018-07-10T21:49:56.757Z,101885.52
2018-07-10T21:52:25.677Z,101892.64
2018-07-10T21:54:54.345Z,101895.30
2018-07-10T21:57:26.528Z,101893.03
2018-07-10T21:59:57.382Z,101899.66
2018-07-10T22:02:25.885Z,101896.08
2018-07-10T22:04:57.346Z,101894.72
2018-07-10T22:07:29.626Z,101898.72
2018-07-10T22:10:07.189Z,101900.05
2018-07-10T22:12:46.478Z,101902.72
2018-07-10T22:15:15.509Z,101900.00
2018-07-10T22:17:44.409Z,101903.52
2018-07-10T22:20:13.042Z,101902.19
2018-07-10T22:22:41.865Z,101906.17
2018-07-10T22:25:10.702Z,101902.15
2018-07-10T22:27:40.369Z,101905.65
2018-07-10T22:30:16.689Z,101898.48
2018-07-10T22:32:50.501Z,101898.44
2018-07-10T22:35:19.423Z,101900.63
2018-07-10T22:37:48.274Z,101892.61
2018-07-10T22:40:18.349Z,101893.06
2018-07-10T22:42:47.108Z,101892.67
2018-07-10T22:45:16.790Z,101898.01
2018-07-10T22:47:46.006Z,101886.88
2018-07-10T22:50:18.873Z,101892.20
2018-07-10T22:52:52.883Z,101882.38
2018-07-10T22:55:26.299Z,101884.53
2018-07-10T22:57:58.601Z,101892.03
2018-07-10T23:00:30.952Z,101883.12
2018-07-10T23:03:00.945Z,101889.73
2018-07-10T23:05:29.857Z,101889.27
2018-07-10T23:07:58.851Z,101883.98
2018-07-10T23:10:27.913Z,101889.72
2018-07-10T23:12:57.417Z,101891.80
2018-07-10T23:15:26.155Z,101894.83
2018-07-10T23:17:54.890Z,101895.66
2018-07-10T23:20:24.374Z,101893.37
2018-07-10T23:22:56.017Z,101891.98
2018-07-10T23:25:27.153Z,101883.05
2018-07-10T23:28:06.454Z,101882.55
2018-07-10T23:30:37.673Z,101886.09
2018-07-10T23:33:10.943Z,101879.94
2018-07-10T23:35:41.991Z,101883.91
2018-07-10T23:38:16.114Z,101878.05
2018-07-10T23:40:45.140Z,101885.09
2018-07-10T23:43:13.664Z,101880.55
2018-07-10T23:45:42.533Z,101878.66
2018-07-10T23:48:11.411Z,101875.06
2018-07-10T23:50:40.279Z,101872.72
2018-07-10T23:54:14.714Z,101870.42
2018-07-10T23:56:43.493Z,101864.63
2018-07-10T23:59:11.974Z,101860.67
